Time;durP1;ratioP1;P1;durP2;ratioP2;P2;SDS_P1;SDS_P2;PMS_P1;PMS_P2;Temp;Humidity;BMP_temperature;BMP_pressure;BME280_temperature;BME280_humidity;BME280_pressure;Samples;Min_cycle;Max_cycle;Signal;HPM_P1;HPM_P2
2023/06/22 00:01:10;;;;;;;4.68;2.67;;;22.00;98.90;;;;;;5025724;28;20044;-33
2023/06/22 00:03:36;;;;;;;2.55;2.20;;;21.90;98.80;;;;;;5025329;28;20785;-34
2023/06/22 00:06:01;;;;;;;2.58;2.38;;;21.90;98.90;;;;;;5025493;28;20032;-33
2023/06/22 00:08:27;;;;;;;1.85;1.63;;;21.90;99.00;;;;;;5025165;28;20443;-33
2023/06/22 00:10:55;;;;;;;1.95;1.75;;;21.90;99.10;;;;;;5024770;28;20040;-33
2023/06/22 00:13:21;;;;;;;3.03;1.83;;;21.90;99.10;;;;;;5024738;28;20129;-33
2023/06/22 00:15:55;;;;;;;2.47;2.20;;;21.80;99.00;;;;;;5025364;28;20140;-31
2023/06/22 00:18:21;;;;;;;1.85;1.75;;;21.80;98.90;;;;;;5023569;28;20029;-32
2023/06/22 00:20:47;;;;;;;2.40;2.13;;;21.80;98.90;;;;;;5024930;28;20518;-33
2023/06/22 00:23:33;;;;;;;3.60;2.45;;;21.80;99.00;;;;;;5024529;28;20128;-33
2023/06/22 00:25:59;;;;;;;3.00;2.40;;;21.80;99.10;;;;;;5025349;28;20027;-33
2023/06/22 00:28:25;;;;;;;3.05;2.75;;;21.80;99.20;;;;;;5024354;28;20029;-33
2023/06/22 00:31:00;;;;;;;3.35;2.40;;;21.70;99.30;;;;;;5024319;28;20046;-34
2023/06/22 00:33:26;;;;;;;3.35;2.58;;;21.70;99.70;;;;;;5024294;28;20101;-34
2023/06/22 00:35:53;;;;;;;3.47;2.80;;;21.70;99.50;;;;;;5025107;28;20560;-33
2023/06/22 00:38:19;;;;;;;3.03;2.72;;;21.60;99.60;;;;;;5024231;28;20030;-33
2023/06/22 00:40:45;;;;;;;3.40;2.72;;;21.60;99.70;;;;;;5025514;28;20030;-35
2023/06/22 00:43:16;;;;;;;2.63;2.42;;;21.50;99.80;;;;;;5024873;28;20126;-34
2023/06/22 00:45:42;;;;;;;4.07;2.85;;;21.50;99.90;;;;;;5024132;28;20123;-33
2023/06/22 00:48:08;;;;;;;3.03;2.83;;;21.40;99.90;;;;;;5024200;28;20826;-34
2023/06/22 00:50:34;;;;;;;4.50;3.28;;;21.40;99.90;;;;;;5024182;28;20021;-33
2023/06/22 00:53:08;;;;;;;3.05;2.70;;;21.40;99.90;;;;;;5024402;28;20036;-32
2023/06/22 00:55:45;;;;;;;3.72;3.15;;;21.30;99.90;;;;;;5024629;28;20049;-41
2023/06/22 00:58:11;;;;;;;4.32;3.10;;;21.30;99.90;;;;;;5023267;28;20596;-33
2023/06/22 01:00:38;;;;;;;4.50;3.22;;;21.30;99.90;;;;;;5023823;28;20362;-33
2023/06/22 01:03:04;;;;;;;4.25;2.95;;;21.20;99.90;;;;;;5024237;28;20053;-34
2023/06/22 01:05:31;;;;;;;3.30;2.72;;;21.20;99.90;;;;;;5024120;28;20022;-34
2023/06/22 01:08:47;;;;;;;3.20;2.90;;;21.20;99.90;;;;;;5024287;28;20021;-33
2023/06/22 01:11:13;;;;;;;4.35;3.08;;;21.20;99.90;;;;;;5024397;28;20076;-34
2023/06/22 01:14:15;;;;;;;3.80;3.38;;;21.10;99.90;;;;;;5023732;28;20026;-34
2023/06/22 01:16:43;;;;;;;3.30;3.00;;;21.10;99.90;;;;;;5015823;28;20119;-34
2023/06/22 01:19:25;;;;;;;3.45;2.80;;;21.10;99.90;;;;;;5024013;28;20235;-34
2023/06/22 01:21:53;;;;;;;4.00;2.85;;;21.00;99.90;;;;;;5014536;28;20041;-34
2023/06/22 01:24:28;;;;;;;2.95;2.55;;;21.00;99.90;;;;;;5023411;28;20025;-34
2023/06/22 01:27:14;;;;;;;3.28;2.75;;;21.00;99.90;;;;;;5013276;28;20176;-33
2023/06/22 01:29:40;;;;;;;3.65;2.50;;;21.00;99.90;;;;;;5024001;28;20018;-34
2023/06/22 01:32:07;;;;;;;2.90;2.50;;;21.00;99.90;;;;;;5023643;28;20018;-34
2023/06/22 01:34:34;;;;;;;2.83;2.55;;;21.00;99.90;;;;;;5023015;28;20498;-34
2023/06/22 01:37:00;;;;;;;3.28;2.30;;;20.90;99.90;;;;;;5024294;28;20385;-34
2023/06/22 01:39:30;;;;;;;2.92;2.50;;;20.90;99.90;;;;;;5023800;28;20101;-33
2023/06/22 01:41:57;;;;;;;3.33;2.85;;;20.80;99.90;;;;;;5020192;28;20116;-33
2023/06/22 01:44:25;;;;;;;3.70;2.72;;;20.80;99.90;;;;;;5023097;28;20444;-34
2023/06/22 01:46:51;;;;;;;3.63;3.08;;;20.80;99.90;;;;;;5023646;28;20546;-34
2023/06/22 01:49:17;;;;;;;3.88;2.80;;;20.80;99.90;;;;;;5023248;28;20076;-33
2023/06/22 01:51:46;;;;;;;3.97;3.10;;;20.80;99.90;;;;;;5023939;28;20409;-32
2023/06/22 01:54:12;;;;;;;3.38;3.08;;;20.80;99.90;;;;;;5023613;28;20103;-34
2023/06/22 01:56:38;;;;;;;3.03;2.47;;;20.80;99.90;;;;;;5023250;28;20025;-33
2023/06/22 01:59:32;;;;;;;3.75;2.63;;;20.80;99.90;;;;;;5023766;28;20024;-34
2023/06/22 02:02:04;;;;;;;3.15;2.60;;;20.80;99.90;;;;;;5023650;28;20077;-33
2023/06/22 02:04:54;;;;;;;3.25;2.67;;;20.70;99.90;;;;;;5028158;28;20659;-34
2023/06/22 02:07:22;;;;;;;3.15;2.85;;;20.70;99.90;;;;;;5027385;28;20424;-32
2023/06/22 02:09:50;;;;;;;3.88;3.08;;;20.70;99.90;;;;;;5027406;28;20108;-33
2023/06/22 02:12:19;;;;;;;3.03;2.50;;;20.70;99.90;;;;;;5026862;28;20025;-34
2023/06/22 02:14:46;;;;;;;3.00;2.70;;;20.70;99.90;;;;;;5027918;28;20099;-34
2023/06/22 02:17:12;;;;;;;3.08;2.78;;;20.80;99.90;;;;;;5026515;28;20043;-33
2023/06/22 02:19:41;;;;;;;3.10;2.70;;;20.80;99.90;;;;;;5027354;28;20477;-33
2023/06/22 02:22:06;;;;;;;3.08;2.60;;;20.80;99.90;;;;;;5027675;28;20591;-33
2023/06/22 02:24:33;;;;;;;2.72;2.50;;;20.70;99.90;;;;;;5026310;28;20524;-33
2023/06/22 02:27:00;;;;;;;3.33;2.63;;;20.70;99.90;;;;;;5027302;28;20457;-34
2023/06/22 02:29:26;;;;;;;3.70;2.75;;;20.70;99.90;;;;;;5027471;28;20032;-34
2023/06/22 02:31:52;;;;;;;4.28;3.17;;;20.70;99.90;;;;;;5026871;28;20128;-34
2023/06/22 02:34:18;;;;;;;3.92;3.10;;;20.60;99.90;;;;;;5026795;28;20125;-33
2023/06/22 02:36:51;;;;;;;4.38;3.30;;;20.60;99.90;;;;;;5027505;28;20412;-33
2023/06/22 02:39:23;;;;;;;3.60;3.30;;;20.60;99.90;;;;;;5015591;28;20026;-33
2023/06/22 02:41:53;;;;;;;3.72;3.20;;;20.60;99.90;;;;;;5027746;28;20033;-32
2023/06/22 02:44:20;;;;;;;5.40;3.30;;;20.60;99.90;;;;;;5026172;28;20024;-32
2023/06/22 02:46:54;;;;;;;3.10;2.80;;;20.60;99.90;;;;;;5027282;28;20029;-33
2023/06/22 02:49:19;;;;;;;4.90;3.35;;;20.60;99.90;;;;;;5027357;28;20373;-32
2023/06/22 02:51:47;;;;;;;3.45;2.95;;;20.60;99.90;;;;;;5027657;28;20026;-33
2023/06/22 02:54:13;;;;;;;3.72;3.30;;;20.50;99.90;;;;;;5027068;28;20068;-33
2023/06/22 02:56:40;;;;;;;5.18;3.35;;;20.50;99.90;;;;;;5027318;28;20030;-33
2023/06/22 02:59:06;;;;;;;4.35;3.65;;;20.50;99.90;;;;;;5026688;28;20022;-33
2023/06/22 03:01:37;;;;;;;4.20;3.67;;;20.50;99.90;;;;;;5027298;28;20033;-33
2023/06/22 03:04:03;;;;;;;4.43;3.38;;;20.50;99.90;;;;;;5027739;28;20037;-32
2023/06/22 03:06:29;;;;;;;4.40;3.38;;;20.50;99.90;;;;;;5027021;28;20100;-33
2023/06/22 03:09:00;;;;;;;4.47;3.60;;;20.50;99.90;;;;;;5027694;28;20183;-33
2023/06/22 03:11:26;;;;;;;3.45;3.15;;;20.50;99.90;;;;;;5026517;28;20029;-33
2023/06/22 03:13:52;;;;;;;3.90;3.45;;;20.50;99.90;;;;;;5025741;28;20037;-34
2023/06/22 03:16:18;;;;;;;4.22;3.63;;;20.50;99.90;;;;;;5025717;28;20025;-34
2023/06/22 03:18:45;;;;;;;5.22;4.10;;;20.50;99.90;;;;;;5027183;28;20025;-33
2023/06/22 03:21:12;;;;;;;4.38;3.97;;;20.40;99.90;;;;;;5025925;28;20030;-33
2023/06/22 03:23:38;;;;;;;5.35;4.05;;;20.40;99.90;;;;;;5025907;28;20461;-34
2023/06/22 03:26:04;;;;;;;4.72;4.20;;;20.40;99.90;;;;;;5026423;28;20028;-33
2023/06/22 03:28:30;;;;;;;6.40;5.32;;;20.40;99.90;;;;;;5025006;28;20026;-34
2023/06/22 03:30:57;;;;;;;5.80;4.93;;;20.40;99.90;;;;;;5026067;28;20021;-36
2023/06/22 03:33:41;;;;;;;6.93;6.13;;;20.40;99.90;;;;;;5024781;28;20290;-35
2023/06/22 03:36:07;;;;;;;6.00;5.40;;;20.40;99.90;;;;;;5025959;28;20026;-32
2023/06/22 03:38:32;;;;;;;8.27;6.50;;;20.40;99.90;;;;;;5025586;28;20021;-33
2023/06/22 03:41:04;;;;;;;9.13;6.57;;;20.40;99.90;;;;;;5025758;28;20032;-32
2023/06/22 03:43:30;;;;;;;8.13;6.00;;;20.40;99.90;;;;;;5025692;28;20159;-34
2023/06/22 03:45:55;;;;;;;7.05;5.88;;;20.40;99.90;;;;;;5025776;28;20372;-33
2023/06/22 03:48:24;;;;;;;6.05;5.45;;;20.30;99.90;;;;;;5024760;28;20416;-33
2023/06/22 03:50:49;;;;;;;7.20;6.50;;;20.30;99.90;;;;;;5025445;28;20036;-33
2023/06/22 03:53:18;;;;;;;7.80;6.30;;;20.30;99.90;;;;;;5025283;28;20033;-33
2023/06/22 03:55:51;;;;;;;7.43;6.32;;;20.30;99.90;;;;;;5024706;28;20477;-33
2023/06/22 03:58:18;;;;;;;6.85;6.07;;;20.30;99.90;;;;;;5005929;28;20084;-33
2023/06/22 04:00:48;;;;;;;7.72;6.93;;;20.20;99.90;;;;;;5020634;28;20112;-33
2023/06/22 04:03:20;;;;;;;7.45;6.63;;;20.20;99.90;;;;;;5024547;28;20512;-33
2023/06/22 04:05:46;;;;;;;6.90;6.15;;;20.10;99.90;;;;;;5025752;28;20013;-33
2023/06/22 04:08:18;;;;;;;8.13;7.32;;;20.20;99.90;;;;;;5024670;28;20060;-32
2023/06/22 04:10:44;;;;;;;8.57;6.90;;;20.10;99.90;;;;;;5024564;28;20022;-33
2023/06/22 04:13:09;;;;;;;8.02;7.22;;;20.10;99.90;;;;;;5025364;28;20318;-32
2023/06/22 04:15:35;;;;;;;10.25;7.88;;;20.00;99.90;;;;;;5023667;28;20132;-32
2023/06/22 04:18:00;;;;;;;8.27;7.45;;;20.10;99.90;;;;;;5025225;28;20032;-34
2023/06/22 04:20:26;;;;;;;9.25;7.45;;;20.00;99.90;;;;;;5024395;28;20052;-32
2023/06/22 04:22:55;;;;;;;9.43;7.85;;;20.00;99.90;;;;;;5024848;28;20041;-38
2023/06/22 04:25:22;;;;;;;10.35;8.32;;;20.00;99.90;;;;;;5024439;28;20083;-34
2023/06/22 04:27:48;;;;;;;9.48;8.48;;;20.00;99.90;;;;;;5025487;28;20052;-34
2023/06/22 04:30:16;;;;;;;9.70;8.00;;;20.00;99.90;;;;;;5023841;28;20079;-32
2023/06/22 04:32:41;;;;;;;9.98;8.13;;;20.10;99.90;;;;;;5024718;28;20029;-33
2023/06/22 04:35:07;;;;;;;11.68;9.25;;;20.10;99.90;;;;;;5024305;28;20075;-32
2023/06/22 04:37:33;;;;;;;9.75;8.35;;;20.10;99.90;;;;;;5023852;28;20048;-34
2023/06/22 04:39:59;;;;;;;9.60;8.60;;;20.20;99.90;;;;;;5025344;28;20673;-34
2023/06/22 04:42:28;;;;;;;12.35;8.75;;;20.20;99.90;;;;;;5024018;28;20033;-33
2023/06/22 04:44:54;;;;;;;9.30;8.18;;;20.20;99.90;;;;;;5024358;28;20021;-33
2023/06/22 04:47:20;;;;;;;8.55;7.72;;;20.20;99.90;;;;;;5023788;28;20025;-33
2023/06/22 04:49:46;;;;;;;8.25;7.40;;;20.30;99.90;;;;;;5024429;28;20037;-33
2023/06/22 04:52:17;;;;;;;9.95;8.52;;;20.30;99.90;;;;;;5022760;28;20060;-34
2023/06/22 04:54:55;;;;;;;11.38;9.02;;;20.30;99.90;;;;;;5024172;28;20053;-33
2023/06/22 04:57:20;;;;;;;9.05;8.20;;;20.40;99.90;;;;;;5023621;28;20025;-33
2023/06/22 04:59:46;;;;;;;10.68;8.73;;;20.40;99.90;;;;;;5023983;28;20037;-33
2023/06/22 05:02:12;;;;;;;8.90;7.60;;;20.40;99.90;;;;;;5023592;28;20582;-33
2023/06/22 05:04:40;;;;;;;11.88;8.70;;;20.50;99.90;;;;;;5024234;28;20882;-33
2023/06/22 05:07:06;;;;;;;11.90;9.75;;;20.50;99.90;;;;;;5023111;28;20080;-33
2023/06/22 05:09:33;;;;;;;9.60;8.18;;;20.50;99.90;;;;;;5024107;28;20022;-33
2023/06/22 05:12:01;;;;;;;10.10;8.35;;;20.50;99.90;;;;;;5023502;28;20045;-33
2023/06/22 05:14:27;;;;;;;9.88;8.32;;;20.60;99.90;;;;;;5023763;28;20033;-33
2023/06/22 05:16:53;;;;;;;12.38;8.88;;;20.60;99.90;;;;;;5024618;28;20033;-32
2023/06/22 05:19:21;;;;;;;9.55;8.60;;;20.60;99.90;;;;;;5022597;28;20021;-34
2023/06/22 05:21:47;;;;;;;9.88;8.73;;;20.70;99.90;;;;;;5024052;28;20087;-34
2023/06/22 05:24:12;;;;;;;10.52;8.45;;;20.70;99.90;;;;;;5023602;28;20519;-34
2023/06/22 05:26:38;;;;;;;10.25;9.15;;;20.70;99.90;;;;;;5023309;28;20033;-33
2023/06/22 05:29:04;;;;;;;9.57;8.45;;;20.80;99.90;;;;;;5024044;28;20021;-32
2023/06/22 05:31:30;;;;;;;10.10;9.00;;;20.80;99.90;;;;;;5023983;28;20108;-34
2023/06/22 05:33:56;;;;;;;9.32;8.35;;;20.90;99.90;;;;;;5024085;28;20064;-33
2023/06/22 05:36:24;;;;;;;10.48;8.48;;;20.90;99.90;;;;;;5023624;28;20060;-32
2023/06/22 05:38:51;;;;;;;9.60;8.30;;;20.90;99.90;;;;;;5027163;28;20508;-33
2023/06/22 05:41:17;;;;;;;9.27;8.27;;;21.00;99.90;;;;;;5027000;28;20038;-34
2023/06/22 05:43:43;;;;;;;10.50;9.10;;;21.00;99.90;;;;;;5027584;28;20036;-32
2023/06/22 05:46:08;;;;;;;8.25;7.32;;;21.00;99.90;;;;;;5028201;28;20084;-35
2023/06/22 05:48:34;;;;;;;10.48;8.80;;;21.10;99.90;;;;;;5027284;28;20083;-34
2023/06/22 05:50:59;;;;;;;11.10;9.75;;;21.10;99.90;;;;;;5028201;28;20381;-34
2023/06/22 05:53:25;;;;;;;9.65;8.57;;;21.20;99.90;;;;;;5027412;28;20029;-32
2023/06/22 05:55:51;;;;;;;10.23;9.15;;;21.20;99.90;;;;;;5027390;28;20128;-33
2023/06/22 05:58:17;;;;;;;9.80;8.30;;;21.20;99.90;;;;;;5027049;28;20079;-33
2023/06/22 06:00:43;;;;;;;9.90;8.77;;;21.20;99.90;;;;;;5027482;28;20025;-34
2023/06/22 06:03:09;;;;;;;9.52;7.90;;;21.30;99.90;;;;;;5026720;28;20388;-33
2023/06/22 06:05:35;;;;;;;10.63;9.38;;;21.30;99.90;;;;;;5027732;28;20017;-33
2023/06/22 06:08:03;;;;;;;10.40;8.48;;;21.30;99.90;;;;;;5027249;28;20025;-33
2023/06/22 06:10:32;;;;;;;10.40;8.77;;;21.30;99.90;;;;;;5026727;28;20032;-34
2023/06/22 06:12:58;;;;;;;9.45;8.35;;;21.40;99.90;;;;;;5028176;28;20128;-33
2023/06/22 06:15:24;;;;;;;8.38;7.00;;;21.40;99.90;;;;;;5025825;28;20042;-34
2023/06/22 06:17:51;;;;;;;8.25;7.45;;;21.50;99.90;;;;;;5027859;28;20044;-33
2023/06/22 06:20:22;;;;;;;7.03;6.28;;;21.60;99.90;;;;;;5027610;28;20025;-33
2023/06/22 06:22:49;;;;;;;7.55;6.68;;;21.70;99.90;;;;;;5027377;28;20048;-33
2023/06/22 06:25:19;;;;;;;7.10;6.40;;;21.70;99.90;;;;;;5026023;28;20034;-32
2023/06/22 06:27:50;;;;;;;9.23;7.78;;;21.70;99.90;;;;;;5027613;28;20061;-34
2023/06/22 06:30:17;;;;;;;11.13;7.25;;;21.90;99.90;;;;;;5026495;28;20063;-33
2023/06/22 06:32:45;;;;;;;9.77;7.28;;;21.90;99.90;;;;;;5027696;28;20025;-32
2023/06/22 06:35:12;;;;;;;7.97;7.18;;;21.90;99.90;;;;;;5027231;28;20037;-33
2023/06/22 06:37:47;;;;;;;7.72;6.90;;;21.90;99.90;;;;;;5026789;28;20055;-33
2023/06/22 06:40:14;;;;;;;7.70;6.90;;;22.00;99.90;;;;;;5026824;28;20030;-35
2023/06/22 06:42:45;;;;;;;10.57;7.40;;;22.10;99.90;;;;;;5026880;28;20037;-34
2023/06/22 06:45:22;;;;;;;6.90;6.07;;;22.10;99.90;;;;;;5026277;28;20094;-34
2023/06/22 06:47:49;;;;;;;6.90;6.05;;;22.20;99.90;;;;;;5026869;28;20480;-33
2023/06/22 06:50:15;;;;;;;6.03;5.43;;;22.20;99.90;;;;;;5024664;28;20552;-35
2023/06/22 06:55:36;;;;;;;6.70;6.10;;;22.30;99.90;;;;;;5020935;28;20068;-35
2023/06/22 06:58:07;;;;;;;7.05;6.35;;;22.40;99.90;;;;;;5025412;28;20084;-35
2023/06/22 07:00:33;;;;;;;7.07;6.25;;;22.50;99.90;;;;;;5025233;28;20030;-34
2023/06/22 07:02:58;;;;;;;9.32;7.07;;;22.60;99.90;;;;;;5026282;28;20075;-33
2023/06/22 07:05:24;;;;;;;8.43;6.47;;;22.70;99.90;;;;;;5025022;28;20091;-33
2023/06/22 07:07:49;;;;;;;8.10;6.13;;;22.80;99.90;;;;;;5026943;28;20123;-35
2023/06/22 07:10:15;;;;;;;6.85;6.18;;;22.90;99.90;;;;;;5026709;28;20481;-33
2023/06/22 07:12:41;;;;;;;6.30;5.70;;;23.00;99.90;;;;;;5025483;28;20579;-34
2023/06/22 07:15:08;;;;;;;5.30;4.78;;;23.00;99.90;;;;;;5026661;28;20032;-34
2023/06/22 07:17:40;;;;;;;5.18;4.63;;;23.10;99.90;;;;;;5026142;28;20033;-34
2023/06/22 07:20:11;;;;;;;5.10;4.60;;;23.10;99.90;;;;;;5025508;28;20033;-34
2023/06/22 07:22:38;;;;;;;5.13;4.40;;;23.10;99.90;;;;;;5026109;28;20059;-34
2023/06/22 07:25:17;;;;;;;5.05;4.45;;;23.10;99.90;;;;;;5027030;28;20022;-33
2023/06/22 07:28:12;;;;;;;4.93;4.43;;;23.20;99.90;;;;;;5026113;28;20036;-33
2023/06/22 07:30:37;;;;;;;5.65;4.93;;;23.30;99.90;;;;;;4998043;28;20485;-33
2023/06/22 07:33:09;;;;;;;6.57;4.88;;;23.30;99.90;;;;;;5023337;28;20026;-33
2023/06/22 07:35:35;;;;;;;5.60;4.60;;;23.30;99.90;;;;;;5026437;28;20021;-34
2023/06/22 07:38:00;;;;;;;6.72;4.72;;;23.40;99.90;;;;;;5026533;28;20364;-33
2023/06/22 07:40:26;;;;;;;5.70;4.47;;;23.40;99.90;;;;;;5025192;28;20079;-34
2023/06/22 07:42:52;;;;;;;5.40;3.78;;;23.50;99.90;;;;;;5026147;28;20076;-34
2023/06/22 07:45:21;;;;;;;4.22;3.83;;;23.60;99.90;;;;;;5025736;28;20021;-34
2023/06/22 07:47:47;;;;;;;4.25;3.85;;;23.70;99.90;;;;;;5025041;28;20279;-34
2023/06/22 07:50:12;;;;;;;6.25;5.65;;;23.70;99.90;;;;;;5025619;28;20104;-34
2023/06/22 07:52:41;;;;;;;5.65;4.97;;;23.80;99.90;;;;;;5025189;28;20747;-33
2023/06/22 07:55:07;;;;;;;6.97;5.22;;;23.80;99.90;;;;;;5024340;28;20435;-33
2023/06/22 07:57:36;;;;;;;5.40;4.90;;;23.90;99.90;;;;;;5024798;28;20028;-34
2023/06/22 08:00:08;;;;;;;6.07;4.95;;;24.00;99.90;;;;;;5025751;28;20034;-33
2023/06/22 08:02:33;;;;;;;;;;;24.10;99.90;;;;;;5024945;28;20041;-33
2023/06/22 08:04:59;;;;;;;5.18;4.60;;;24.20;99.90;;;;;;5025502;28;19909;-34
2023/06/22 08:07:24;;;;;;;4.50;4.10;;;24.30;99.90;;;;;;5024177;28;20025;-33
2023/06/22 08:09:56;;;;;;;5.28;4.40;;;24.30;99.90;;;;;;5024752;28;20026;-33
2023/06/22 08:12:22;;;;;;;4.60;4.07;;;24.40;99.90;;;;;;5025112;28;20099;-33
2023/06/22 08:14:51;;;;;;;4.57;3.70;;;24.40;99.90;;;;;;5024550;28;20026;-33
2023/06/22 08:17:16;;;;;;;4.53;4.13;;;24.50;99.90;;;;;;5025677;28;20110;-34
2023/06/22 08:19:42;;;;;;;4.20;3.80;;;24.60;99.90;;;;;;5025062;28;20022;-34
2023/06/22 08:22:07;;;;;;;5.03;4.28;;;24.70;99.90;;;;;;5023598;28;20057;-33
2023/06/22 08:24:33;;;;;;;4.75;4.30;;;24.70;99.90;;;;;;5024796;28;20080;-33
2023/06/22 08:27:01;;;;;;;4.57;4.00;;;24.80;99.90;;;;;;5024819;28;20026;-34
2023/06/22 08:29:27;;;;;;;5.18;4.20;;;24.90;99.90;;;;;;5023728;28;20079;-34
2023/06/22 08:31:53;;;;;;;4.35;3.78;;;24.90;99.90;;;;;;5024686;28;20033;-35
2023/06/22 08:34:21;;;;;;;4.38;3.95;;;24.90;99.90;;;;;;5024093;28;20013;-35
2023/06/22 08:36:52;;;;;;;4.43;3.60;;;24.80;99.90;;;;;;5024318;28;20490;-34
2023/06/22 08:39:19;;;;;;;6.13;4.40;;;24.90;99.90;;;;;;5023860;28;20091;-34
2023/06/22 08:41:44;;;;;;;4.40;3.60;;;24.90;99.90;;;;;;5024566;28;20056;-35
2023/06/22 08:44:10;;;;;;;6.97;4.30;;;25.00;99.90;;;;;;5023404;28;20774;-34
2023/06/22 08:46:36;;;;;;;4.45;4.05;;;25.00;99.90;;;;;;5024879;28;20422;-33
2023/06/22 08:49:02;;;;;;;4.43;4.03;;;25.10;99.90;;;;;;5024471;28;20030;-33
2023/06/22 08:51:29;;;;;;;4.70;4.25;;;25.10;99.90;;;;;;5023298;28;20032;-33
2023/06/22 08:53:54;;;;;;;4.90;4.50;;;25.20;99.90;;;;;;5024053;28;20041;-33
2023/06/22 08:56:20;;;;;;;4.38;3.97;;;25.20;99.70;;;;;;5024132;28;20021;-33
2023/06/22 08:58:46;;;;;;;5.28;3.88;;;25.20;99.70;;;;;;5023623;28;20065;-34
2023/06/22 09:01:11;;;;;;;6.55;4.05;;;25.20;99.60;;;;;;5023582;28;20073;-32
2023/06/22 09:03:40;;;;;;;3.63;3.33;;;25.20;99.50;;;;;;5024503;28;20110;-35
2023/06/22 09:06:06;;;;;;;5.75;3.90;;;25.20;99.70;;;;;;5022968;28;20029;-34
2023/06/22 09:08:34;;;;;;;4.70;4.30;;;25.30;99.30;;;;;;5023865;28;20469;-33
2023/06/22 09:11:03;;;;;;;4.40;4.00;;;25.30;98.90;;;;;;5023835;28;20022;-33
2023/06/22 09:13:31;;;;;;;4.13;3.72;;;25.40;98.80;;;;;;5023177;28;20048;-32
2023/06/22 09:15:56;;;;;;;3.90;3.60;;;25.40;98.60;;;;;;5023997;28;20022;-34
2023/06/22 09:18:22;;;;;;;4.03;3.28;;;25.50;98.50;;;;;;5023342;28;20072;-35
2023/06/22 09:20:48;;;;;;;3.40;3.10;;;25.60;98.50;;;;;;5023537;28;20511;-33
2023/06/22 09:23:14;;;;;;;3.58;3.22;;;25.70;98.60;;;;;;5024250;28;20041;-34
2023/06/22 09:25:40;;;;;;;5.05;3.80;;;25.90;98.30;;;;;;5023404;28;20014;-34
2023/06/22 09:28:06;;;;;;;3.67;3.28;;;25.90;97.90;;;;;;5024487;28;20065;-33
2023/06/22 09:30:32;;;;;;;4.80;3.25;;;26.00;97.90;;;;;;5024029;28;20049;-34
2023/06/22 09:32:57;;;;;;;5.03;3.92;;;26.10;97.80;;;;;;5023413;28;20053;-34
2023/06/22 09:35:23;;;;;;;3.92;3.17;;;26.10;97.60;;;;;;5023536;28;20084;-33
2023/06/22 09:37:48;;;;;;;3.78;3.15;;;26.20;97.40;;;;;;5024185;28;20053;-32
2023/06/22 09:40:16;;;;;;;3.67;2.92;;;26.20;97.20;;;;;;5023801;28;20033;-33
2023/06/22 09:42:43;;;;;;;3.35;3.05;;;26.20;97.10;;;;;;5023731;28;20121;-34
2023/06/22 09:45:09;;;;;;;2.63;2.42;;;26.20;96.80;;;;;;5024135;28;20014;-34
2023/06/22 09:47:37;;;;;;;3.30;3.00;;;26.20;96.60;;;;;;5023216;28;20137;-34
2023/06/22 09:50:03;;;;;;;3.10;2.55;;;26.20;96.40;;;;;;5024241;28;20915;-34
2023/06/22 09:52:29;;;;;;;2.60;2.40;;;26.20;96.00;;;;;;5023623;28;20036;-35
2023/06/22 09:54:55;;;;;;;3.35;2.75;;;26.20;95.90;;;;;;5023004;28;20053;-34
2023/06/22 09:57:20;;;;;;;3.90;2.78;;;26.10;95.80;;;;;;5023221;28;20028;-34
2023/06/22 09:59:46;;;;;;;2.78;2.30;;;26.10;95.70;;;;;;5023591;28;20480;-34
2023/06/22 10:02:13;;;;;;;3.35;2.42;;;26.10;95.80;;;;;;5022537;28;20512;-35
2023/06/22 10:04:41;;;;;;;2.80;2.53;;;26.10;95.80;;;;;;5023730;28;20052;-35
2023/06/22 10:07:06;;;;;;;3.38;3.10;;;26.00;95.80;;;;;;5024054;28;20025;-34
2023/06/22 10:09:32;;;;;;;3.08;2.72;;;26.00;95.80;;;;;;5024435;28;20029;-34
2023/06/22 10:11:58;;;;;;;3.80;3.17;;;25.90;95.80;;;;;;5023403;28;20029;-34
2023/06/22 10:14:24;;;;;;;4.53;3.85;;;25.90;95.90;;;;;;5022087;28;20104;-34
2023/06/22 10:16:55;;;;;;;3.67;3.38;;;25.80;95.90;;;;;;5023487;28;20029;-34
2023/06/22 10:19:21;;;;;;;3.80;3.50;;;25.70;95.90;;;;;;5023453;28;20113;-34
2023/06/22 10:21:47;;;;;;;3.13;2.83;;;25.70;96.00;;;;;;5023351;28;20029;-34
2023/06/22 10:24:12;;;;;;;2.90;2.70;;;25.70;96.10;;;;;;5025750;28;20040;-34
2023/06/22 10:26:38;;;;;;;3.47;2.97;;;25.70;96.00;;;;;;5027313;28;20025;-34
2023/06/22 10:29:03;;;;;;;3.80;3.22;;;25.60;95.90;;;;;;5025917;28;20460;-34
2023/06/22 10:31:29;;;;;;;3.33;2.85;;;25.60;95.60;;;;;;5026848;28;20025;-35
2023/06/22 10:33:55;;;;;;;4.15;2.85;;;25.50;95.40;;;;;;5027175;28;20095;-34
2023/06/22 10:36:22;;;;;;;3.00;2.70;;;25.60;95.40;;;;;;5025680;28;20373;-34
2023/06/22 10:38:48;;;;;;;5.40;3.42;;;25.60;95.40;;;;;;5027134;28;20036;-34
2023/06/22 10:41:14;;;;;;;3.15;2.65;;;25.60;95.30;;;;;;5026882;28;20045;-33
2023/06/22 10:43:39;;;;;;;2.63;2.42;;;25.60;95.20;;;;;;5025053;28;20041;-35
2023/06/22 10:46:06;;;;;;;4.43;2.70;;;25.70;95.20;;;;;;5026372;28;20021;-33
2023/06/22 10:48:32;;;;;;;3.00;2.80;;;25.70;95.20;;;;;;5026000;28;20139;-34
2023/06/22 10:50:57;;;;;;;2.80;2.60;;;25.80;95.20;;;;;;5025295;28;20068;-36
2023/06/22 10:53:23;;;;;;;3.08;2.78;;;25.80;95.10;;;;;;5025938;28;20590;-34
2023/06/22 10:55:48;;;;;;;2.63;2.42;;;25.90;95.20;;;;;;5026502;28;20069;-34
2023/06/22 10:58:14;;;;;;;3.40;3.10;;;25.90;95.20;;;;;;5025859;28;20029;-34
2023/06/22 11:00:43;;;;;;;3.20;2.90;;;26.00;95.30;;;;;;5025803;28;20116;-34
2023/06/22 11:03:08;;;;;;;4.47;2.60;;;26.00;95.20;;;;;;5026586;28;20041;-33
2023/06/22 11:05:40;;;;;;;3.55;3.25;;;26.00;95.30;;;;;;5024979;28;20661;-34
2023/06/22 11:08:05;;;;;;;3.08;2.80;;;26.00;95.40;;;;;;5026717;28;20033;-33
2023/06/22 11:10:31;;;;;;;2.95;2.72;;;26.00;95.40;;;;;;5024872;28;20021;-34
2023/06/22 11:12:57;;;;;;;3.47;2.80;;;26.00;95.20;;;;;;5026193;28;20036;-34
2023/06/22 11:15:24;;;;;;;3.75;3.00;;;26.00;95.30;;;;;;5025790;28;20104;-32
2023/06/22 11:17:49;;;;;;;3.50;2.88;;;26.00;95.20;;;;;;5025779;28;20040;-33
2023/06/22 11:20:15;;;;;;;3.30;3.00;;;26.00;95.20;;;;;;5025629;28;20025;-34
2023/06/22 11:22:41;;;;;;;3.47;2.75;;;26.00;95.30;;;;;;5026408;28;20067;-32
2023/06/22 11:25:07;;;;;;;3.65;3.35;;;26.10;95.40;;;;;;5025175;28;20032;-34
2023/06/22 11:27:35;;;;;;;3.83;3.53;;;26.00;95.30;;;;;;5026021;28;20035;-34
2023/06/22 11:30:01;;;;;;;3.75;3.08;;;26.10;95.30;;;;;;5026268;28;20175;-34
2023/06/22 11:32:27;;;;;;;3.88;3.42;;;26.00;95.30;;;;;;5024559;28;20198;-33
2023/06/22 11:34:52;;;;;;;4.13;3.70;;;25.90;95.50;;;;;;5025216;28;20416;-32
2023/06/22 11:37:18;;;;;;;4.50;4.10;;;25.90;95.80;;;;;;5025639;28;20029;-33
2023/06/22 11:39:43;;;;;;;5.05;3.72;;;25.80;95.90;;;;;;5025534;28;20100;-33
2023/06/22 11:42:10;;;;;;;4.32;3.97;;;25.70;96.10;;;;;;5025454;28;20103;-34
2023/06/22 11:44:38;;;;;;;3.88;3.55;;;25.60;96.10;;;;;;5024897;28;20065;-34
2023/06/22 11:47:04;;;;;;;4.13;3.72;;;25.40;96.30;;;;;;5025086;28;20079;-33
2023/06/22 11:49:31;;;;;;;4.38;3.97;;;25.30;96.60;;;;;;5025837;28;20435;-34
2023/06/22 11:52:00;;;;;;;4.80;4.40;;;25.20;96.80;;;;;;5024877;28;20035;-33
2023/06/22 11:54:25;;;;;;;4.03;3.58;;;25.10;96.90;;;;;;5024624;28;20049;-34
2023/06/22 11:56:51;;;;;;;3.55;3.25;;;25.00;97.00;;;;;;5025593;28;20025;-33
2023/06/22 11:59:16;;;;;;;4.22;3.60;;;25.00;97.30;;;;;;5025999;28;20097;-34
2023/06/22 12:01:42;;;;;;;3.72;3.30;;;24.90;97.60;;;;;;5025189;28;20052;-34
2023/06/22 12:04:10;;;;;;;3.92;3.63;;;24.90;97.90;;;;;;5025133;28;20497;-33
2023/06/22 12:06:41;;;;;;;4.25;3.78;;;24.80;98.20;;;;;;5025199;28;20107;-34
2023/06/22 12:09:06;;;;;;;4.18;3.63;;;24.80;98.50;;;;;;5025266;28;20388;-33
2023/06/22 12:11:32;;;;;;;4.60;4.20;;;24.70;98.80;;;;;;5024625;28;20033;-33
2023/06/22 12:14:01;;;;;;;4.65;4.25;;;24.60;99.10;;;;;;5025093;28;20188;-33
2023/06/22 12:16:28;;;;;;;4.85;4.10;;;24.50;99.30;;;;;;5024711;28;20032;-34
2023/06/22 12:18:53;;;;;;;4.10;3.63;;;24.50;99.60;;;;;;5025294;28;20033;-34
2023/06/22 12:21:19;;;;;;;4.40;4.00;;;24.40;99.90;;;;;;5024354;28;20051;-34
2023/06/22 12:23:44;;;;;;;4.65;4.25;;;24.30;99.90;;;;;;5025161;28;20025;-34
2023/06/22 12:26:10;;;;;;;4.45;4.05;;;24.10;99.90;;;;;;5024944;28;20036;-34
2023/06/22 12:28:36;;;;;;;7.38;4.15;;;23.90;99.90;;;;;;5025272;28;20491;-34
2023/06/22 12:31:01;;;;;;;6.43;5.20;;;23.80;99.90;;;;;;5025512;28;20385;-35
2023/06/22 12:33:27;;;;;;;5.25;4.75;;;23.60;99.90;;;;;;5024727;28;20056;-33
2023/06/22 12:35:52;;;;;;;5.30;4.53;;;23.40;99.90;;;;;;5024903;28;20056;-34
2023/06/22 12:38:18;;;;;;;5.30;4.68;;;23.30;99.90;;;;;;5025165;28;20033;-34
2023/06/22 12:40:43;;;;;;;5.03;4.53;;;23.30;99.90;;;;;;5025924;28;20029;-34
2023/06/22 12:43:09;;;;;;;6.72;5.43;;;23.30;99.90;;;;;;5024416;28;20045;-33
2023/06/22 12:45:35;;;;;;;6.35;5.65;;;23.30;99.90;;;;;;5025070;28;20025;-34
2023/06/22 12:48:00;;;;;;;5.57;5.05;;;23.20;99.90;;;;;;5024502;28;20429;-38
2023/06/22 12:50:26;;;;;;;6.10;5.50;;;23.20;99.90;;;;;;5023378;28;20874;-33